createdAt,value
2024-02-13T00:00:19.839Z,5.20
2024-02-13T00:01:19.803Z,5.19
2024-02-13T00:02:19.724Z,5.19
2024-02-13T00:03:19.825Z,5.18
2024-02-13T00:04:19.677Z,5.18
2024-02-13T00:05:19.782Z,5.15
2024-02-13T00:06:19.660Z,5.16
2024-02-13T00:07:19.731Z,5.16
2024-02-13T00:08:19.916Z,5.18
2024-02-13T00:09:19.672Z,5.15
2024-02-13T00:10:19.654Z,5.18
2024-02-13T00:11:19.725Z,5.12
2024-02-13T00:12:19.630Z,5.15
2024-02-13T00:13:19.603Z,5.15
2024-02-13T00:14:19.633Z,5.12
2024-02-13T00:15:19.572Z,5.08
2024-02-13T00:16:19.787Z,5.12
2024-02-13T00:17:19.583Z,5.12
2024-02-13T00:18:19.702Z,5.10
2024-02-13T00:19:19.583Z,5.10
2024-02-13T00:20:19.561Z,5.10
2024-02-13T00:21:19.545Z,5.08
2024-02-13T00:22:19.551Z,5.05
2024-02-13T00:23:19.545Z,5.05
2024-02-13T00:24:19.498Z,5.04
2024-02-13T00:25:19.624Z,5.05
2024-02-13T00:26:19.636Z,5.04
2024-02-13T00:27:19.502Z,5.04
2024-02-13T00:28:19.462Z,5.05
2024-02-13T00:29:19.476Z,5.02
2024-02-13T00:30:19.449Z,5.02
2024-02-13T00:31:19.421Z,5.02
2024-02-13T00:32:19.427Z,5.02
2024-02-13T00:33:19.469Z,5.01
2024-02-13T00:34:19.400Z,5.01
2024-02-13T00:35:19.394Z,5.00
2024-02-13T00:36:19.386Z,5.00
2024-02-13T00:37:19.368Z,5.00
2024-02-13T00:38:19.362Z,5.00
2024-02-13T00:39:19.350Z,5.00
2024-02-13T00:40:19.311Z,4.98
2024-02-13T00:41:19.329Z,4.97
2024-02-13T00:42:19.333Z,4.97
2024-02-13T00:43:19.282Z,4.95
2024-02-13T00:44:19.325Z,4.94
2024-02-13T00:45:19.390Z,4.94
2024-02-13T00:46:19.246Z,4.97
2024-02-13T00:47:19.959Z,4.94
2024-02-13T00:48:19.580Z,4.95
2024-02-13T00:49:19.256Z,4.94
2024-02-13T00:50:19.272Z,4.92
2024-02-13T00:51:19.203Z,4.89
2024-02-13T00:52:19.223Z,4.90
2024-02-13T00:53:19.208Z,4.90
2024-02-13T00:54:19.199Z,4.89
2024-02-13T00:55:19.162Z,4.89
2024-02-13T00:56:19.169Z,4.89
2024-02-13T00:57:19.165Z,4.87
2024-02-13T00:58:19.150Z,4.86
2024-02-13T00:59:19.240Z,4.87
2024-02-13T01:00:19.178Z,4.89
2024-02-13T01:01:19.126Z,4.87
2024-02-13T01:02:19.235Z,4.87
2024-02-13T01:03:19.065Z,4.84
2024-02-13T01:04:19.258Z,4.84
2024-02-13T01:05:19.203Z,4.84
2024-02-13T01:06:19.789Z,4.84
2024-02-13T01:07:19.246Z,4.83
2024-02-13T01:08:19.079Z,4.83
2024-02-13T01:09:19.035Z,4.82
2024-02-13T01:10:19.012Z,4.79
2024-02-13T01:11:19.159Z,4.78
2024-02-13T01:12:18.982Z,4.78
2024-02-13T01:13:19.718Z,4.76
2024-02-13T01:14:19.111Z,4.75
2024-02-13T01:15:18.927Z,4.75
2024-02-13T01:16:18.938Z,4.76
2024-02-13T01:17:19.009Z,4.75
2024-02-13T01:18:19.670Z,4.78
2024-02-13T01:19:18.970Z,4.74
2024-02-13T01:20:18.961Z,4.71
2024-02-13T01:21:18.954Z,4.70
2024-02-13T01:22:18.861Z,4.74
2024-02-13T01:23:18.942Z,4.70
2024-02-13T01:24:18.893Z,4.70
2024-02-13T01:25:18.878Z,4.68
2024-02-13T01:26:18.871Z,4.66
2024-02-13T01:27:18.833Z,4.64
2024-02-13T01:28:18.852Z,4.66
2024-02-13T01:29:18.778Z,4.64
2024-02-13T01:30:18.826Z,4.66
2024-02-13T01:31:18.776Z,4.63
2024-02-13T01:32:18.843Z,4.66
2024-02-13T01:33:19.022Z,4.64
2024-02-13T01:34:18.877Z,4.64
2024-02-13T01:35:18.836Z,4.61
2024-02-13T01:36:18.728Z,4.63
2024-02-13T01:37:18.892Z,4.60
2024-02-13T01:38:18.779Z,4.60
2024-02-13T01:39:18.791Z,4.61
2024-02-13T01:40:18.857Z,4.61
2024-02-13T01:41:18.873Z,4.61
2024-02-13T01:42:18.830Z,4.60
2024-02-13T01:43:18.641Z,4.58
2024-02-13T01:44:18.646Z,4.58
2024-02-13T01:45:18.723Z,4.57
2024-02-13T01:46:18.716Z,4.56
2024-02-13T01:47:18.787Z,4.53
2024-02-13T01:48:19.039Z,4.53
2024-02-13T01:49:18.719Z,4.53
2024-02-13T01:50:18.574Z,4.50
2024-02-13T01:51:18.574Z,4.52
2024-02-13T01:52:18.569Z,4.53
2024-02-13T01:53:18.559Z,4.52
2024-02-13T01:54:18.530Z,4.50
2024-02-13T01:55:18.582Z,4.49
2024-02-13T01:56:18.500Z,4.49
2024-02-13T01:57:18.474Z,4.48
2024-02-13T01:58:18.496Z,4.50
2024-02-13T01:59:18.693Z,4.49
2024-02-13T02:00:18.472Z,4.46
2024-02-13T02:01:18.473Z,4.48
2024-02-13T02:02:18.524Z,4.49
2024-02-13T02:03:18.482Z,4.46
2024-02-13T02:04:18.578Z,4.48
2024-02-13T02:05:18.464Z,4.46
2024-02-13T02:06:18.640Z,4.46
2024-02-13T02:07:18.416Z,4.46
2024-02-13T02:08:18.456Z,4.45
2024-02-13T02:09:18.395Z,4.46
2024-02-13T02:10:18.506Z,4.46
2024-02-13T02:11:18.415Z,4.43
2024-02-13T02:12:18.388Z,4.43
2024-02-13T02:13:18.411Z,4.43
2024-02-13T02:14:18.372Z,4.43
2024-02-13T02:15:18.324Z,4.42
2024-02-13T02:16:18.371Z,4.42
2024-02-13T02:17:18.345Z,4.40
2024-02-13T02:18:18.441Z,4.39
2024-02-13T02:19:18.334Z,4.38
2024-02-13T02:20:18.262Z,4.38
2024-02-13T02:21:18.285Z,4.36
2024-02-13T02:22:18.283Z,4.34
2024-02-13T02:23:18.422Z,4.32
2024-02-13T02:24:18.245Z,4.32
2024-02-13T02:25:18.246Z,4.34
2024-02-13T02:26:18.242Z,4.31
2024-02-13T02:27:18.223Z,4.31
2024-02-13T02:28:18.203Z,4.31
2024-02-13T02:29:18.238Z,4.28
2024-02-13T02:30:18.276Z,4.28
2024-02-13T02:31:18.216Z,4.27
2024-02-13T02:32:18.151Z,4.27
2024-02-13T02:33:18.200Z,4.25
2024-02-13T02:34:18.106Z,4.24
2024-02-13T02:35:18.525Z,4.22
2024-02-13T02:36:18.148Z,4.27
2024-02-13T02:37:18.055Z,4.22
2024-02-13T02:38:18.140Z,4.24
2024-02-13T02:39:18.038Z,4.20
2024-02-13T02:40:18.076Z,4.25
2024-02-13T02:41:18.032Z,4.21
2024-02-13T02:42:18.033Z,4.20
2024-02-13T02:43:18.084Z,4.20
2024-02-13T02:44:18.049Z,4.20
2024-02-13T02:45:18.085Z,4.21
2024-02-13T02:46:18.004Z,4.16
2024-02-13T02:47:18.023Z,4.18
2024-02-13T02:48:18.586Z,4.21
2024-02-13T02:49:18.015Z,4.22
2024-02-13T02:50:18.009Z,4.21
2024-02-13T02:51:17.956Z,4.20
2024-02-13T02:52:18.009Z,4.24
2024-02-13T02:53:20.280Z,4.18
2024-02-13T02:54:17.912Z,4.24
2024-02-13T02:55:17.878Z,4.20
2024-02-13T02:56:17.925Z,4.21
2024-02-13T02:57:17.883Z,4.20
2024-02-13T02:58:17.863Z,4.21
2024-02-13T02:59:17.891Z,4.20
2024-02-13T03:00:17.829Z,4.22
2024-02-13T03:01:17.856Z,4.20
2024-02-13T03:02:17.882Z,4.18
2024-02-13T03:03:17.928Z,4.18
2024-02-13T03:04:17.840Z,4.18
2024-02-13T03:05:18.280Z,4.18
2024-02-13T03:06:17.932Z,4.16
2024-02-13T03:07:17.791Z,4.18
2024-02-13T03:08:17.783Z,4.18
2024-02-13T03:09:17.804Z,4.16
2024-02-13T03:10:17.809Z,4.16
2024-02-13T03:11:17.741Z,4.14
2024-02-13T03:12:18.706Z,4.16
2024-02-13T03:13:17.758Z,4.13
2024-02-13T03:14:17.687Z,4.14
2024-02-13T03:15:17.681Z,4.14
2024-02-13T03:16:17.664Z,4.14
2024-02-13T03:17:17.701Z,4.14
2024-02-13T03:18:17.786Z,4.13
2024-02-13T03:19:17.734Z,4.12
2024-02-13T03:20:17.662Z,4.12
2024-02-13T03:21:17.616Z,4.13
2024-02-13T03:22:17.648Z,4.12
2024-02-13T03:23:17.672Z,4.13
2024-02-13T03:24:17.614Z,4.12
2024-02-13T03:25:17.773Z,4.13
2024-02-13T03:26:17.614Z,4.12
2024-02-13T03:27:17.615Z,4.13
2024-02-13T03:28:17.604Z,4.12
2024-02-13T03:29:17.613Z,4.13
2024-02-13T03:30:17.546Z,4.12
2024-02-13T03:31:17.567Z,4.12
2024-02-13T03:32:17.508Z,4.12
2024-02-13T03:33:17.638Z,4.10
2024-02-13T03:34:17.585Z,4.10
2024-02-13T03:35:17.605Z,4.10
2024-02-13T03:36:17.450Z,4.12
2024-02-13T03:37:17.427Z,4.09
2024-02-13T03:38:17.465Z,4.09
2024-02-13T03:39:17.423Z,4.10
2024-02-13T03:40:17.588Z,4.10
2024-02-13T03:41:17.424Z,4.10
2024-02-13T03:42:17.733Z,4.09
2024-02-13T03:43:17.404Z,4.07
2024-02-13T03:44:17.424Z,4.09
2024-02-13T03:45:17.395Z,4.07
2024-02-13T03:46:17.366Z,4.09
2024-02-13T03:47:17.369Z,4.07
2024-02-13T03:48:17.428Z,4.10
2024-02-13T03:49:17.372Z,4.09
2024-02-13T03:50:17.587Z,4.09
2024-02-13T03:51:17.749Z,4.07
2024-02-13T03:52:17.311Z,4.09
2024-02-13T03:53:17.303Z,4.07
2024-02-13T03:54:17.245Z,4.10
2024-02-13T03:55:17.264Z,4.09
2024-02-13T03:56:17.252Z,4.07
2024-02-13T03:57:17.257Z,4.09
2024-02-13T03:58:17.229Z,4.10
2024-02-13T03:59:17.353Z,4.07
2024-02-13T04:00:17.176Z,4.09
2024-02-13T04:01:17.212Z,4.07
2024-02-13T04:02:17.198Z,4.10
2024-02-13T04:03:17.193Z,4.04
2024-02-13T04:04:17.171Z,4.04
2024-02-13T04:05:17.273Z,4.04
2024-02-13T04:06:17.259Z,4.03
2024-02-13T04:07:17.161Z,4.04
2024-02-13T04:08:17.208Z,4.02
2024-02-13T04:09:17.126Z,3.99
2024-02-13T04:10:17.119Z,4.03
2024-02-13T04:11:17.110Z,4.02
2024-02-13T04:12:17.062Z,4.03
2024-02-13T04:13:17.088Z,4.02
2024-02-13T04:14:17.080Z,4.02
2024-02-13T04:15:17.065Z,4.02
2024-02-13T04:16:17.056Z,4.02
2024-02-13T04:17:17.159Z,4.02
2024-02-13T04:18:17.091Z,4.03
2024-02-13T04:19:17.080Z,4.02
2024-02-13T04:20:17.037Z,4.02
2024-02-13T04:21:16.982Z,4.03
2024-02-13T04:22:17.031Z,4.00
2024-02-13T04:23:17.037Z,3.99
2024-02-13T04:24:17.045Z,4.00
2024-02-13T04:25:16.978Z,3.95
2024-02-13T04:26:25.689Z,3.96
2024-02-13T04:27:18.134Z,3.96
2024-02-13T04:28:16.867Z,3.99
2024-02-13T04:29:16.909Z,3.99
2024-02-13T04:30:16.870Z,3.99
2024-02-13T04:31:16.889Z,3.96
2024-02-13T04:32:16.956Z,3.96
2024-02-13T04:33:17.524Z,3.94
2024-02-13T04:34:16.977Z,3.96
2024-02-13T04:35:16.840Z,3.92
2024-02-13T04:36:16.857Z,3.91
2024-02-13T04:37:16.843Z,3.92
2024-02-13T04:38:16.849Z,3.95
2024-02-13T04:39:16.761Z,3.94
2024-02-13T04:40:16.791Z,3.96
2024-02-13T04:41:16.777Z,3.94
2024-02-13T04:42:16.750Z,3.94
2024-02-13T04:43:16.756Z,3.94
2024-02-13T04:44:16.726Z,3.94
2024-02-13T04:45:16.731Z,3.94
2024-02-13T04:46:16.772Z,3.92
2024-02-13T04:47:16.730Z,3.91
2024-02-13T04:48:16.787Z,3.92
2024-02-13T04:49:16.816Z,3.89
2024-02-13T04:50:18.758Z,3.91
2024-02-13T04:51:16.695Z,3.91
2024-02-13T04:52:16.691Z,3.91
2024-02-13T04:53:16.748Z,3.94
2024-02-13T04:54:16.665Z,3.92
2024-02-13T04:55:16.854Z,3.91
2024-02-13T04:56:16.587Z,3.89
2024-02-13T04:57:16.647Z,3.92
2024-02-13T04:58:16.602Z,3.92
2024-02-13T04:59:16.718Z,3.89
2024-02-13T05:00:16.565Z,3.92
2024-02-13T05:01:16.584Z,3.91
2024-02-13T05:02:16.610Z,3.88
2024-02-13T05:03:16.538Z,3.86
2024-02-13T05:04:16.859Z,3.86
2024-02-13T05:05:16.577Z,3.89
2024-02-13T05:06:16.586Z,3.91
2024-02-13T05:07:16.539Z,3.88
2024-02-13T05:08:16.497Z,3.88
2024-02-13T05:09:16.678Z,3.86
2024-02-13T05:10:16.473Z,3.86
2024-02-13T05:11:16.498Z,3.85
2024-02-13T05:12:16.447Z,3.86
2024-02-13T05:13:16.497Z,3.84
2024-02-13T05:14:16.415Z,3.86
2024-02-13T05:15:16.373Z,3.84
2024-02-13T05:16:16.397Z,3.84
2024-02-13T05:17:16.406Z,3.85
2024-02-13T05:18:16.961Z,3.86
2024-02-13T05:19:16.360Z,3.86
2024-02-13T05:20:16.340Z,3.88
2024-02-13T05:21:16.345Z,3.89
2024-02-13T05:22:16.285Z,3.89
2024-02-13T05:23:16.329Z,3.89
2024-02-13T05:24:16.332Z,3.89
2024-02-13T05:25:16.287Z,3.91
2024-02-13T05:26:16.326Z,3.89
2024-02-13T05:27:16.293Z,3.88
2024-02-13T05:28:16.337Z,3.88
2024-02-13T05:29:16.302Z,3.89
2024-02-13T05:30:16.233Z,3.91
2024-02-13T05:31:16.271Z,3.91
2024-02-13T05:32:16.215Z,3.91
2024-02-13T05:33:16.322Z,3.92
2024-02-13T05:34:16.285Z,3.94
2024-02-13T05:35:16.175Z,3.94
2024-02-13T05:36:16.141Z,3.95
2024-02-13T05:37:16.179Z,3.94
2024-02-13T05:38:16.193Z,3.91
2024-02-13T05:39:16.152Z,3.91
2024-02-13T05:40:16.116Z,3.94
2024-02-13T05:41:16.257Z,3.96
2024-02-13T05:42:16.133Z,3.94
2024-02-13T05:43:16.069Z,3.92
2024-02-13T05:44:16.154Z,3.94
2024-02-13T05:45:16.065Z,3.95
2024-02-13T05:46:16.118Z,3.95
2024-02-13T05:47:16.130Z,3.94
2024-02-13T05:48:16.193Z,3.96
2024-02-13T05:49:16.062Z,3.94
2024-02-13T05:50:16.165Z,3.96
2024-02-13T05:51:16.298Z,3.95
2024-02-13T05:52:16.017Z,3.96
2024-02-13T05:53:16.050Z,3.96
2024-02-13T05:54:16.059Z,3.96
2024-02-13T05:55:15.995Z,3.96
2024-02-13T05:56:26.186Z,3.99
2024-02-13T05:57:16.943Z,3.99
2024-02-13T05:58:16.066Z,3.99
2024-02-13T05:59:15.968Z,4.02
2024-02-13T06:00:16.456Z,4.00
2024-02-13T06:01:16.013Z,4.02
2024-02-13T06:02:15.995Z,4.04
2024-02-13T06:03:15.951Z,4.03
2024-02-13T06:04:16.000Z,4.04
2024-02-13T06:05:15.955Z,4.07
2024-02-13T06:06:15.931Z,4.06
2024-02-13T06:07:15.819Z,4.04
2024-02-13T06:08:15.932Z,4.09
2024-02-13T06:09:15.836Z,4.07
2024-02-13T06:10:15.829Z,4.09
2024-02-13T06:11:15.881Z,4.06
2024-02-13T06:12:15.882Z,4.09
2024-02-13T06:13:16.007Z,4.09
2024-02-13T06:14:15.828Z,4.13
2024-02-13T06:15:15.745Z,4.12
2024-02-13T06:16:15.851Z,4.12
2024-02-13T06:17:15.725Z,4.12
2024-02-13T06:18:15.884Z,4.13
2024-02-13T06:19:15.798Z,4.13
2024-02-13T06:20:15.710Z,4.13
2024-02-13T06:21:15.742Z,4.14
2024-02-13T06:22:15.690Z,4.14
2024-02-13T06:23:15.717Z,4.16
2024-02-13T06:24:15.655Z,4.16
2024-02-13T06:25:15.649Z,4.18
2024-02-13T06:26:15.689Z,4.20
2024-02-13T06:27:15.626Z,4.18
2024-02-13T06:28:15.625Z,4.14
2024-02-13T06:29:15.638Z,4.16
2024-02-13T06:30:15.837Z,4.14
2024-02-13T06:31:15.696Z,4.16
2024-02-13T06:32:15.598Z,4.18
2024-02-13T06:33:15.799Z,4.20
2024-02-13T06:34:15.557Z,4.21
2024-02-13T06:35:15.751Z,4.18
2024-02-13T06:36:15.636Z,4.21
2024-02-13T06:37:15.495Z,4.21
2024-02-13T06:38:15.592Z,4.21
2024-02-13T06:39:15.502Z,4.22
2024-02-13T06:40:15.478Z,4.22
2024-02-13T06:41:15.516Z,4.24
2024-02-13T06:42:15.628Z,4.21
2024-02-13T06:43:15.447Z,4.21
2024-02-13T06:44:15.453Z,4.21
2024-02-13T06:45:15.391Z,4.22
2024-02-13T06:46:15.435Z,4.24
2024-02-13T06:47:15.441Z,4.22
2024-02-13T06:48:15.913Z,4.25
2024-02-13T06:49:15.512Z,4.25
2024-02-13T06:50:15.508Z,4.27
2024-02-13T06:51:15.365Z,4.27
2024-02-13T06:52:15.387Z,4.27
2024-02-13T06:53:15.429Z,4.28
2024-02-13T06:54:15.357Z,4.30
2024-02-13T06:55:15.313Z,4.30
2024-02-13T06:56:15.357Z,4.32
2024-02-13T06:57:15.360Z,4.32
2024-02-13T06:58:15.412Z,4.30
2024-02-13T06:59:15.255Z,4.32
2024-02-13T07:00:15.413Z,4.34
2024-02-13T07:01:15.311Z,4.32
2024-02-13T07:02:15.343Z,4.34
2024-02-13T07:03:15.269Z,4.36
2024-02-13T07:04:15.290Z,4.34
2024-02-13T07:05:15.268Z,4.36
2024-02-13T07:06:15.317Z,4.39
2024-02-13T07:07:25.771Z,4.39
2024-02-13T07:08:16.279Z,4.40
2024-02-13T07:09:15.378Z,4.42
2024-02-13T07:10:15.573Z,4.46
2024-02-13T07:11:15.163Z,4.46
2024-02-13T07:12:15.217Z,4.52
2024-02-13T07:13:15.113Z,4.50
2024-02-13T07:14:15.181Z,4.52
2024-02-13T07:15:15.234Z,4.52
2024-02-13T07:16:15.133Z,4.53
2024-02-13T07:17:15.205Z,4.56
2024-02-13T07:18:15.142Z,4.58
2024-02-13T07:19:15.147Z,4.58
2024-02-13T07:20:15.154Z,4.63
2024-02-13T07:21:15.063Z,4.63
2024-02-13T07:22:15.053Z,4.60
2024-02-13T07:23:15.098Z,4.64
2024-02-13T07:24:15.006Z,4.66
2024-02-13T07:25:15.001Z,4.68
2024-02-13T07:26:15.018Z,4.70
2024-02-13T07:27:15.035Z,4.68
2024-02-13T07:28:15.027Z,4.74
2024-02-13T07:29:15.115Z,4.78
2024-02-13T07:30:15.070Z,4.79
2024-02-13T07:31:14.913Z,4.82
2024-02-13T07:32:14.958Z,4.83
2024-02-13T07:33:15.142Z,4.86
2024-02-13T07:34:15.097Z,4.87
2024-02-13T07:35:15.025Z,4.90
2024-02-13T07:36:15.491Z,4.97
2024-02-13T07:37:14.880Z,5.00
2024-02-13T07:38:14.933Z,5.01
2024-02-13T07:39:14.856Z,5.04
2024-02-13T07:40:14.846Z,5.07
2024-02-13T07:41:14.896Z,5.10
2024-02-13T07:42:14.829Z,5.15
2024-02-13T07:43:14.834Z,5.19
2024-02-13T07:44:14.834Z,5.20
2024-02-13T07:45:14.853Z,5.26
2024-02-13T07:46:14.803Z,5.29
2024-02-13T07:47:14.792Z,5.34
2024-02-13T07:48:14.899Z,5.38
2024-02-13T07:49:14.812Z,5.43
2024-02-13T07:50:14.827Z,5.47
2024-02-13T07:51:14.923Z,5.51
2024-02-13T07:52:14.706Z,5.55
2024-02-13T07:53:14.808Z,5.61
2024-02-13T07:54:14.679Z,5.65
2024-02-13T07:55:14.698Z,5.70
2024-02-13T07:56:14.692Z,5.73
2024-02-13T07:57:14.683Z,5.80
2024-02-13T07:58:14.648Z,5.84
2024-02-13T07:59:14.754Z,5.81
2024-02-13T08:00:14.687Z,5.84
2024-02-13T08:01:16.266Z,5.83
2024-02-13T08:02:14.732Z,5.87
2024-02-13T08:03:14.617Z,5.95
2024-02-13T08:04:14.685Z,5.98
2024-02-13T08:05:14.649Z,5.95
2024-02-13T08:06:14.691Z,5.98
2024-02-13T08:07:14.637Z,5.98
2024-02-13T08:08:14.592Z,5.97
2024-02-13T08:09:14.575Z,5.97
2024-02-13T08:10:14.624Z,5.98
2024-02-13T08:11:14.607Z,6.05
2024-02-13T08:12:14.494Z,6.09
2024-02-13T08:13:14.587Z,6.09
2024-02-13T08:14:14.584Z,6.10
2024-02-13T08:15:14.510Z,6.12
2024-02-13T08:16:14.480Z,6.15
2024-02-13T08:17:14.504Z,6.16
2024-02-13T08:18:14.650Z,6.20
2024-02-13T08:19:14.477Z,6.20
2024-02-13T08:20:14.520Z,6.25
2024-02-13T08:21:14.948Z,6.28
2024-02-13T08:22:14.398Z,6.32
2024-02-13T08:23:14.453Z,6.36
2024-02-13T08:24:14.752Z,6.41
2024-02-13T08:25:14.459Z,6.47
2024-02-13T08:26:14.400Z,6.56
2024-02-13T08:27:14.380Z,6.57
2024-02-13T08:28:14.488Z,6.71
2024-02-13T08:29:14.398Z,6.75
2024-02-13T08:30:14.403Z,6.85
2024-02-13T08:31:14.462Z,6.87
2024-02-13T08:32:14.327Z,6.89
2024-02-13T08:33:14.377Z,6.96
2024-02-13T08:34:14.468Z,7.00
2024-02-13T08:35:14.438Z,7.07
2024-02-13T08:36:14.307Z,7.13
2024-02-13T08:37:14.245Z,7.13
2024-02-13T08:38:14.241Z,7.19
2024-02-13T08:39:14.197Z,7.23
2024-02-13T08:40:14.317Z,7.26
2024-02-13T08:41:14.170Z,7.31
2024-02-13T08:42:14.274Z,7.33
2024-02-13T08:43:14.180Z,7.39
2024-02-13T08:44:14.205Z,7.40
2024-02-13T08:45:14.156Z,7.43
2024-02-13T08:46:14.152Z,7.44
2024-02-13T08:47:14.178Z,7.44
2024-02-13T08:48:14.358Z,7.51
2024-02-13T08:49:14.548Z,7.55
2024-02-13T08:50:14.576Z,7.62
2024-02-13T08:51:15.327Z,7.66
2024-02-13T08:52:14.042Z,7.69
2024-02-13T08:53:14.163Z,7.70
2024-02-13T08:54:14.151Z,7.74
2024-02-13T08:55:14.042Z,7.75
2024-02-13T08:56:14.108Z,7.75
2024-02-13T08:57:14.038Z,7.81
2024-02-13T08:58:14.037Z,7.81
2024-02-13T08:59:14.042Z,7.84
2024-02-13T09:00:14.029Z,7.87
2024-02-13T09:01:14.083Z,7.88
2024-02-13T09:02:14.009Z,7.93
2024-02-13T09:03:13.946Z,7.96
2024-02-13T09:04:14.023Z,8.02
2024-02-13T09:05:14.184Z,8.02
2024-02-13T09:06:13.969Z,8.09
2024-02-13T09:07:14.029Z,8.14
2024-02-13T09:08:14.001Z,8.20
2024-02-13T09:09:13.962Z,8.21
2024-02-13T09:10:14.363Z,8.28
2024-02-13T09:11:14.053Z,8.34
2024-02-13T09:12:13.901Z,8.41
2024-02-13T09:13:14.186Z,8.46
2024-02-13T09:14:13.937Z,8.53
2024-02-13T09:15:13.975Z,8.60
2024-02-13T09:16:14.316Z,8.68
2024-02-13T09:17:13.845Z,8.78
2024-02-13T09:18:13.995Z,8.86
2024-02-13T09:19:14.025Z,8.90
2024-02-13T09:20:13.899Z,8.95
2024-02-13T09:21:13.908Z,8.99
2024-02-13T09:22:13.785Z,9.00
2024-02-13T09:23:13.809Z,9.02
2024-02-13T09:24:13.775Z,9.00
2024-02-13T09:25:13.745Z,9.05
2024-02-13T09:26:13.799Z,9.05
2024-02-13T09:27:13.689Z,9.03
2024-02-13T09:28:14.358Z,9.09
2024-02-13T09:29:13.720Z,9.12
2024-02-13T09:30:13.683Z,9.12
2024-02-13T09:31:13.725Z,9.08
2024-02-13T09:32:13.877Z,9.08
2024-02-13T09:33:13.748Z,9.09
2024-02-13T09:34:13.748Z,9.05
2024-02-13T09:35:13.809Z,9.11
2024-02-13T09:36:13.606Z,9.13
2024-02-13T09:37:13.639Z,9.16
2024-02-13T09:38:13.594Z,9.19
2024-02-13T09:39:13.633Z,9.26
2024-02-13T09:40:13.706Z,9.31
2024-02-13T09:41:13.721Z,9.34
2024-02-13T09:42:13.580Z,9.40
2024-02-13T09:43:13.539Z,9.44
2024-02-13T09:44:13.540Z,9.45
2024-02-13T09:45:13.518Z,9.48
2024-02-13T09:46:13.498Z,9.52
2024-02-13T09:47:13.555Z,9.63
2024-02-13T09:48:13.560Z,9.70
2024-02-13T09:49:13.722Z,9.77
2024-02-13T09:50:13.655Z,9.84
2024-02-13T09:51:13.411Z,9.85
2024-02-13T09:52:13.458Z,9.90
2024-02-13T09:53:14.102Z,9.91
2024-02-13T09:54:13.411Z,9.91
2024-02-13T09:55:13.511Z,9.97
2024-02-13T09:56:13.485Z,10.02
2024-02-13T09:57:13.467Z,10.03
2024-02-13T09:58:13.397Z,10.07
2024-02-13T09:59:13.509Z,10.10
2024-02-13T10:00:13.302Z,10.09
2024-02-13T10:01:13.374Z,10.10
2024-02-13T10:02:13.298Z,10.15
2024-02-13T10:03:13.835Z,10.20
2024-02-13T10:04:13.341Z,10.25
2024-02-13T10:05:14.051Z,10.25
2024-02-13T10:06:14.254Z,10.27
2024-02-13T10:07:14.530Z,10.28
2024-02-13T10:08:13.321Z,10.34
2024-02-13T10:09:13.241Z,10.27
2024-02-13T10:10:13.188Z,10.25
2024-02-13T10:11:13.723Z,10.27
2024-02-13T10:12:13.167Z,10.30
2024-02-13T10:13:13.207Z,10.33
2024-02-13T10:14:13.992Z,10.34
2024-02-13T10:15:13.131Z,10.36
2024-02-13T10:16:13.113Z,10.42
2024-02-13T10:17:13.311Z,10.46
2024-02-13T10:18:13.396Z,10.49
2024-02-13T10:19:13.129Z,10.55
2024-02-13T10:20:13.175Z,10.55
2024-02-13T10:21:13.166Z,10.62
2024-02-13T10:22:13.091Z,10.67
2024-02-13T10:23:13.238Z,10.68
2024-02-13T10:24:13.383Z,10.77
2024-02-13T10:25:13.063Z,10.82
2024-02-13T10:26:13.134Z,10.86
2024-02-13T10:27:13.074Z,10.92
2024-02-13T10:28:13.121Z,11.02
2024-02-13T10:29:13.142Z,11.04
2024-02-13T10:30:13.034Z,11.04
2024-02-13T10:31:13.016Z,11.08
2024-02-13T10:32:13.044Z,11.12
2024-02-13T10:33:13.049Z,11.15
2024-02-13T10:34:13.571Z,11.15
2024-02-13T10:35:13.086Z,11.19
2024-02-13T10:36:12.950Z,11.20
2024-02-13T10:37:15.761Z,11.20
2024-02-13T10:38:12.873Z,11.25
2024-02-13T10:39:12.934Z,11.30
2024-02-13T10:40:12.892Z,11.33
2024-02-13T10:41:12.859Z,11.38
2024-02-13T10:42:12.902Z,11.48
2024-02-13T10:43:12.856Z,11.52
2024-02-13T10:44:12.880Z,11.55
2024-02-13T10:45:12.822Z,11.65
2024-02-13T10:46:12.836Z,11.68
2024-02-13T10:47:12.810Z,11.78
2024-02-13T10:48:12.873Z,11.81
2024-02-13T10:49:13.093Z,11.80
2024-02-13T10:50:12.823Z,11.83
2024-02-13T10:51:12.770Z,11.80
2024-02-13T10:52:12.761Z,11.77
2024-02-13T10:53:12.775Z,11.74
2024-02-13T10:54:12.854Z,11.71
2024-02-13T10:55:12.783Z,11.71
2024-02-13T10:56:12.765Z,11.63
2024-02-13T10:57:12.754Z,11.63
2024-02-13T10:58:20.861Z,11.53
2024-02-13T10:59:13.846Z,11.48
2024-02-13T11:00:12.735Z,11.48
2024-02-13T11:01:13.077Z,11.41
2024-02-13T11:02:12.708Z,11.45
2024-02-13T11:03:12.895Z,11.49
2024-02-13T11:04:12.766Z,11.60
2024-02-13T11:05:12.758Z,11.56
2024-02-13T11:06:12.686Z,11.55
2024-02-13T11:07:12.738Z,11.51
2024-02-13T11:08:12.688Z,11.53
2024-02-13T11:09:12.595Z,11.70
2024-02-13T11:10:13.097Z,11.91
2024-02-13T11:11:12.584Z,11.95
2024-02-13T11:12:12.545Z,11.88
2024-02-13T11:13:12.588Z,11.81
2024-02-13T11:14:12.501Z,11.80
2024-02-13T11:15:12.648Z,11.77
2024-02-13T11:16:12.474Z,11.77
2024-02-13T11:17:12.517Z,11.74
2024-02-13T11:18:12.649Z,11.74
2024-02-13T11:19:12.502Z,11.73
2024-02-13T11:20:12.509Z,11.70
2024-02-13T11:21:12.480Z,11.70
2024-02-13T11:22:12.445Z,11.71
2024-02-13T11:23:12.454Z,11.73
2024-02-13T11:24:12.433Z,11.74
2024-02-13T11:25:12.672Z,11.80
2024-02-13T11:26:12.445Z,11.86
2024-02-13T11:27:20.512Z,11.85
2024-02-13T11:28:13.393Z,11.86
2024-02-13T11:29:12.525Z,11.86
2024-02-13T11:30:12.469Z,11.85
2024-02-13T11:31:12.640Z,11.95
2024-02-13T11:32:12.405Z,12.08
2024-02-13T11:33:12.395Z,12.26
2024-02-13T11:34:12.466Z,12.40
2024-02-13T11:35:12.666Z,12.54
2024-02-13T11:36:12.297Z,12.61
2024-02-13T11:37:12.312Z,12.80
2024-02-13T11:38:12.372Z,13.03
2024-02-13T11:39:12.213Z,13.27
2024-02-13T11:40:12.210Z,13.27
2024-02-13T11:41:12.204Z,13.27
2024-02-13T11:42:12.193Z,13.27
2024-02-13T11:43:12.166Z,13.43
2024-02-13T11:44:12.184Z,13.83
2024-02-13T11:45:12.608Z,14.25
2024-02-13T11:46:12.288Z,14.61
2024-02-13T11:47:12.196Z,14.78
2024-02-13T11:48:12.423Z,14.66
2024-02-13T11:49:12.651Z,14.52
2024-02-13T11:50:12.195Z,14.34
2024-02-13T11:51:12.379Z,14.31
2024-02-13T11:52:12.213Z,14.49
2024-02-13T11:53:12.133Z,14.86
2024-02-13T11:54:12.093Z,15.41
2024-02-13T11:55:12.098Z,15.80
2024-02-13T11:56:12.100Z,15.98
2024-02-13T11:57:12.064Z,16.12
2024-02-13T11:58:12.137Z,16.36
2024-02-13T11:59:12.324Z,16.40
2024-02-13T12:00:12.152Z,16.22
2024-02-13T12:01:12.235Z,16.24
2024-02-13T12:02:11.979Z,16.54
2024-02-13T12:03:12.062Z,16.92
2024-02-13T12:04:12.199Z,17.28
2024-02-13T12:05:12.463Z,17.44
2024-02-13T12:06:12.062Z,17.60
2024-02-13T12:07:12.016Z,17.66
2024-02-13T12:08:11.974Z,17.73
2024-02-13T12:09:11.971Z,17.47
2024-02-13T12:10:12.280Z,17.02
2024-02-13T12:11:11.889Z,16.74
2024-02-13T12:12:11.874Z,16.40
2024-02-13T12:13:11.896Z,16.09
2024-02-13T12:14:11.855Z,15.76
2024-02-13T12:15:12.174Z,15.50
2024-02-13T12:16:11.915Z,15.30
2024-02-13T12:17:11.808Z,15.08
2024-02-13T12:18:11.913Z,14.87
2024-02-13T12:19:11.992Z,14.63
2024-02-13T12:20:11.844Z,14.43
2024-02-13T12:21:11.776Z,14.30
2024-02-13T12:22:11.790Z,14.18
2024-02-13T12:23:11.768Z,14.08
2024-02-13T12:24:11.736Z,13.97
2024-02-13T12:25:11.710Z,13.89
2024-02-13T12:26:11.691Z,13.86
2024-02-13T12:27:11.860Z,13.87
2024-02-13T12:28:11.699Z,13.87
2024-02-13T12:29:11.703Z,13.97
2024-02-13T12:30:12.190Z,14.13
2024-02-13T12:31:11.722Z,14.49
2024-02-13T12:32:11.737Z,14.52
2024-02-13T12:33:11.707Z,14.66
2024-02-13T12:34:11.932Z,14.58
2024-02-13T12:35:11.836Z,14.45
2024-02-13T12:36:11.668Z,14.37
2024-02-13T12:37:11.653Z,14.26
2024-02-13T12:38:11.589Z,14.15
2024-02-13T12:39:11.608Z,13.98
2024-02-13T12:40:11.568Z,13.93
2024-02-13T12:41:11.678Z,13.89
2024-02-13T12:42:11.589Z,13.93
2024-02-13T12:43:11.699Z,13.95
2024-02-13T12:44:11.594Z,14.05
2024-02-13T12:45:11.523Z,14.11
2024-02-13T12:46:11.526Z,14.15
2024-02-13T12:47:11.567Z,14.20
2024-02-13T12:48:11.661Z,14.25
2024-02-13T12:49:12.312Z,14.49
2024-02-13T12:50:11.512Z,14.96
2024-02-13T12:51:12.182Z,15.30
2024-02-13T12:52:11.448Z,15.47
2024-02-13T12:53:11.470Z,15.60
2024-02-13T12:54:11.533Z,15.37
2024-02-13T12:55:11.416Z,15.18
2024-02-13T12:56:11.422Z,15.05
2024-02-13T12:57:11.453Z,14.96
2024-02-13T12:58:11.363Z,14.90
2024-02-13T12:59:11.464Z,14.86
2024-02-13T13:00:11.372Z,14.93
2024-02-13T13:01:11.591Z,15.19
2024-02-13T13:02:11.331Z,15.96
2024-02-13T13:03:11.381Z,16.02
2024-02-13T13:04:11.360Z,16.03
2024-02-13T13:05:11.371Z,16.16
2024-02-13T13:06:12.972Z,16.39
2024-02-13T13:07:11.342Z,16.37
2024-02-13T13:08:11.252Z,16.46
2024-02-13T13:09:20.279Z,16.34
2024-02-13T13:10:12.274Z,16.69
2024-02-13T13:11:11.269Z,16.64